Austin, Nevada
Current Conditions -  °F | °C
As of 3:56 PM on Monday 20 Oct 2014 (Local Time) from KNFL Reporting Station
Scattered Clouds Scattered Clouds  
Wind Chill: 27°   Ceiling: Unl
Heat Index: 27°   Visibility: 10mi
Dew Point: -5°   Wind: 13mph
Humidity: 12%   Direction: 230°SW
Pressure: 29.8"   Gusts: NA
Location:  39.49°N, 117.07°W
Report Text: KNFL 202256Z 23011KT 10SM FEW080 FEW120 SCT220 27/M05 A2980 RMK AO2 SLP069 T02671050
Loading
Personal Weather Stations






























Interactive Weather Map
Tropical Storm Tracking
New forecast layout! Learn more

10-Day Weather Forecast

Advertisements
Track Severe Weather on mobile